Time;durP1;ratioP1;P1;durP2;ratioP2;P2;SDS_P1;SDS_P2;PMS_P1;PMS_P2;Temp;Humidity;BMP_temperature;BMP_pressure;BME280_temperature;BME280_humidity;BME280_pressure;Samples;Min_cycle;Max_cycle;Signal;HPM_P1;HPM_P2
2021/11/25 00:01:49;;;;;;;8.65;6.70;;;5.10;99.90;;;;;;5039209;28;20040;-55
2021/11/25 00:04:15;;;;;;;9.48;7.28;;;5.10;99.90;;;;;;5040766;28;20053;-54
2021/11/25 00:06:40;;;;;;;10.85;7.85;;;5.10;99.90;;;;;;5046902;28;20030;-52
2021/11/25 00:09:06;;;;;;;11.07;8.50;;;5.10;99.90;;;;;;5040926;28;20029;-53
2021/11/25 00:11:32;;;;;;;12.38;8.30;;;5.10;99.90;;;;;;5044784;28;20036;-55
2021/11/25 00:13:58;;;;;;;12.27;8.25;;;5.10;99.90;;;;;;5039438;28;20034;-53
2021/11/25 00:16:23;;;;;;;8.80;7.78;;;5.10;99.90;;;;;;5047018;28;20083;-50
2021/11/25 00:18:49;;;;;;;8.95;7.18;;;5.10;99.90;;;;;;5029784;28;20025;-50
2021/11/25 00:21:14;;;;;;;10.73;8.23;;;5.10;99.90;;;;;;5040357;28;20045;-55
2021/11/25 00:23:44;;;;;;;11.07;8.07;;;5.10;99.90;;;;;;5031056;28;20116;-50
2021/11/25 00:26:10;;;;;;;11.30;7.60;;;5.10;99.90;;;;;;5033110;28;20029;-54
2021/11/25 00:28:36;;;;;;;10.23;8.40;;;5.10;99.90;;;;;;5044479;28;20497;-55
2021/11/25 00:31:02;;;;;;;13.00;8.65;;;5.10;99.90;;;;;;5034341;28;20097;-53
2021/11/25 00:33:29;;;;;;;13.25;8.70;;;5.10;99.90;;;;;;5031487;28;20026;-56
2021/11/25 00:35:55;;;;;;;13.35;8.75;;;5.10;99.90;;;;;;5043017;28;20460;-52
2021/11/25 00:38:21;;;;;;;13.05;9.85;;;5.10;99.90;;;;;;5033301;28;20084;-54
2021/11/25 00:40:46;;;;;;;12.70;8.70;;;5.10;99.90;;;;;;5047449;28;20025;-54
2021/11/25 00:43:12;;;;;;;14.98;9.38;;;5.00;99.90;;;;;;5041577;28;20025;-51
2021/11/25 00:45:38;;;;;;;11.60;8.77;;;5.10;99.90;;;;;;5033964;28;20029;-54
2021/11/25 00:48:04;;;;;;;11.90;9.02;;;5.00;99.90;;;;;;5042757;28;20022;-53
2021/11/25 00:50:29;;;;;;;11.80;8.38;;;5.10;99.90;;;;;;5041071;28;20048;-50
2021/11/25 00:52:55;;;;;;;12.13;9.05;;;5.10;99.90;;;;;;5046643;28;20106;-50
2021/11/25 00:55:21;;;;;;;10.85;8.80;;;5.10;99.90;;;;;;5049893;28;20382;-53
2021/11/25 00:57:47;;;;;;;11.95;8.77;;;5.10;99.90;;;;;;5034658;28;20099;-55
2021/11/25 01:00:17;;;;;;;12.65;9.30;;;5.10;99.90;;;;;;5034560;28;20521;-52
2021/11/25 01:02:43;;;;;;;12.73;9.68;;;5.00;99.90;;;;;;5036808;28;20112;-53
2021/11/25 01:05:10;;;;;;;12.57;9.05;;;5.00;99.90;;;;;;5044702;28;20162;-55
2021/11/25 01:07:35;;;;;;;13.32;9.80;;;5.00;99.90;;;;;;5035894;28;20108;-50
2021/11/25 01:10:03;;;;;;;11.77;9.60;;;5.00;99.90;;;;;;5031676;28;20508;-53
2021/11/25 01:12:30;;;;;;;14.73;9.35;;;5.00;99.90;;;;;;5046619;28;20031;-54
2021/11/25 01:14:55;;;;;;;12.77;9.15;;;5.00;99.90;;;;;;5046306;28;20035;-54
2021/11/25 01:17:21;;;;;;;15.88;10.10;;;5.00;99.90;;;;;;5037432;28;20025;-50
2021/11/25 01:19:47;;;;;;;16.58;9.13;;;5.00;99.90;;;;;;5043005;28;20119;-53
2021/11/25 01:22:12;;;;;;;12.65;8.93;;;5.00;99.90;;;;;;5048215;28;20040;-54
2021/11/25 01:24:38;;;;;;;13.65;10.60;;;5.00;99.90;;;;;;5047160;28;20576;-55
2021/11/25 01:27:04;;;;;;;15.23;10.18;;;5.00;99.90;;;;;;5038757;28;20033;-53
2021/11/25 01:29:30;;;;;;;14.02;10.27;;;5.00;99.90;;;;;;5045607;28;20052;-53
2021/11/25 01:31:56;;;;;;;15.63;10.88;;;5.00;99.90;;;;;;5034921;28;20559;-54
2021/11/25 01:34:21;;;;;;;18.10;11.07;;;5.00;99.90;;;;;;5048561;28;20068;-53
2021/11/25 01:36:47;;;;;;;15.50;10.40;;;5.00;99.90;;;;;;5033525;28;20098;-52
2021/11/25 01:39:13;;;;;;;14.57;9.30;;;5.00;99.90;;;;;;5036935;28;20523;-51
2021/11/25 01:41:39;;;;;;;14.70;10.38;;;5.00;99.90;;;;;;5033959;28;20060;-53
2021/11/25 01:44:05;;;;;;;15.18;11.52;;;5.00;99.90;;;;;;5048078;28;20111;-54
2021/11/25 01:46:31;;;;;;;15.05;9.68;;;5.00;99.90;;;;;;5044569;28;20041;-51
2021/11/25 01:48:56;;;;;;;18.40;11.70;;;4.90;99.90;;;;;;5035371;28;20475;-53
2021/11/25 01:51:23;;;;;;;13.65;9.93;;;4.90;99.90;;;;;;5038393;28;20017;-53
2021/11/25 01:53:49;;;;;;;14.90;10.18;;;4.90;99.90;;;;;;5036829;28;20049;-54
2021/11/25 01:56:16;;;;;;;15.13;10.52;;;5.00;99.90;;;;;;5029219;28;20447;-55
2021/11/25 01:58:42;;;;;;;13.95;10.07;;;5.00;99.90;;;;;;5036251;28;20029;-53
2021/11/25 02:01:11;;;;;;;13.45;10.30;;;4.90;99.90;;;;;;5032531;28;20025;-52
2021/11/25 02:03:37;;;;;;;14.20;10.50;;;4.90;99.90;;;;;;5026575;28;20382;-52
2021/11/25 02:06:04;;;;;;;14.85;10.60;;;4.90;99.90;;;;;;5028779;28;20030;-53
2021/11/25 02:08:29;;;;;;;18.45;10.90;;;4.90;99.90;;;;;;5029545;28;20013;-50
2021/11/25 02:10:58;;;;;;;13.73;10.30;;;4.90;99.90;;;;;;5045558;28;20512;-52
2021/11/25 02:13:25;;;;;;;20.52;12.27;;;4.90;99.90;;;;;;5030824;28;20078;-49
2021/11/25 02:15:51;;;;;;;16.40;11.40;;;4.90;99.90;;;;;;5029493;28;20083;-50
2021/11/25 02:18:19;;;;;;;17.95;10.75;;;4.90;99.90;;;;;;5028499;28;20060;-52
2021/11/25 02:20:49;;;;;;;14.43;9.77;;;4.90;99.90;;;;;;5042665;28;20033;-52
2021/11/25 02:23:16;;;;;;;16.02;10.35;;;4.90;99.90;;;;;;5029090;28;20118;-50
2021/11/25 02:25:42;;;;;;;13.27;9.52;;;4.90;99.90;;;;;;5028978;28;20152;-54
2021/11/25 02:28:08;;;;;;;14.35;10.45;;;4.90;99.90;;;;;;5028653;28;20108;-54
2021/11/25 02:30:35;;;;;;;14.35;10.85;;;4.90;99.90;;;;;;5028792;28;20040;-51
2021/11/25 02:33:01;;;;;;;16.38;12.02;;;4.90;99.90;;;;;;5029639;28;20401;-50
2021/11/25 02:35:30;;;;;;;13.38;10.18;;;4.90;99.90;;;;;;5045657;28;20052;-51
2021/11/25 02:37:56;;;;;;;15.80;10.45;;;4.80;99.90;;;;;;5041783;28;20028;-54
2021/11/25 02:40:29;;;;;;;13.40;10.05;;;4.80;99.90;;;;;;5028831;28;20033;-55
2021/11/25 02:42:58;;;;;;;17.15;11.05;;;4.80;99.90;;;;;;5028924;28;20397;-53
2021/11/25 02:45:26;;;;;;;14.95;10.80;;;4.80;99.90;;;;;;5029465;28;20041;-56
2021/11/25 02:47:52;;;;;;;14.43;9.82;;;4.80;99.90;;;;;;5041990;28;20025;-55
2021/11/25 02:50:20;;;;;;;17.00;10.77;;;4.80;99.90;;;;;;5047616;28;20045;-55
2021/11/25 02:52:47;;;;;;;17.25;11.45;;;4.80;99.90;;;;;;5031251;28;20144;-53
2021/11/25 02:55:14;;;;;;;17.58;10.07;;;4.80;99.90;;;;;;5044321;28;20021;-54
2021/11/25 02:57:40;;;;;;;12.10;9.98;;;4.80;99.90;;;;;;5046199;28;20069;-52
2021/11/25 03:00:31;;;;;;;13.25;10.70;;;4.70;99.90;;;;;;5045532;28;20074;-53
2021/11/25 03:03:00;;;;;;;16.70;11.13;;;4.70;99.90;;;;;;5041491;28;20025;-53
2021/11/25 03:05:27;;;;;;;15.93;11.15;;;4.70;99.90;;;;;;5027881;28;20070;-57
2021/11/25 03:07:52;;;;;;;14.70;10.70;;;4.70;99.90;;;;;;5044593;28;20079;-52
2021/11/25 03:10:18;;;;;;;20.55;11.55;;;4.70;99.90;;;;;;5028640;28;20030;-51
2021/11/25 03:12:44;;;;;;;17.23;10.82;;;4.60;99.90;;;;;;5028192;28;20032;-53
2021/11/25 03:15:10;;;;;;;15.75;10.82;;;4.60;99.90;;;;;;5043214;28;20444;-53
2021/11/25 03:17:39;;;;;;;16.88;11.70;;;4.60;99.90;;;;;;5028279;28;20026;-53
2021/11/25 03:20:06;;;;;;;17.65;12.32;;;4.60;99.90;;;;;;5027905;28;20079;-52
2021/11/25 03:22:32;;;;;;;16.10;11.38;;;4.60;99.90;;;;;;5028015;28;20069;-52
2021/11/25 03:24:58;;;;;;;14.88;10.40;;;4.50;99.90;;;;;;5045706;28;20060;-53
2021/11/25 03:27:23;;;;;;;18.17;11.77;;;4.50;99.90;;;;;;5047362;28;20075;-53
2021/11/25 03:29:49;;;;;;;15.00;10.27;;;4.50;99.90;;;;;;5047292;28;20029;-54
2021/11/25 03:32:15;;;;;;;16.20;11.40;;;4.50;99.90;;;;;;5043701;28;20028;-53
2021/11/25 03:34:40;;;;;;;18.85;11.45;;;4.40;99.90;;;;;;5023436;28;20030;-53
2021/11/25 03:37:06;;;;;;;18.15;12.43;;;4.40;99.90;;;;;;5037986;28;20503;-50
2021/11/25 03:39:32;;;;;;;16.70;10.98;;;4.40;99.90;;;;;;5030349;28;20041;-54
2021/11/25 03:41:58;;;;;;;17.17;12.40;;;4.40;99.90;;;;;;5031766;28;20543;-51
2021/11/25 03:44:23;;;;;;;17.25;12.15;;;4.40;99.90;;;;;;5031349;28;20108;-53
2021/11/25 03:46:49;;;;;;;19.38;12.13;;;4.40;99.90;;;;;;5035353;28;20025;-51
2021/11/25 03:49:14;;;;;;;16.20;10.75;;;4.40;99.90;;;;;;5040568;28;20017;-53
2021/11/25 03:51:40;;;;;;;15.45;10.70;;;4.40;99.90;;;;;;5031522;28;20086;-54
2021/11/25 03:54:06;;;;;;;16.10;11.48;;;4.40;99.90;;;;;;5031664;28;20101;-52
2021/11/25 03:56:31;;;;;;;16.98;12.35;;;4.30;99.90;;;;;;5031165;28;20021;-52
2021/11/25 03:58:57;;;;;;;18.80;12.85;;;4.30;99.90;;;;;;5031007;28;20100;-52
2021/11/25 04:01:23;;;;;;;17.08;11.75;;;4.30;99.90;;;;;;5042261;28;20086;-52
2021/11/25 04:03:49;;;;;;;17.95;11.32;;;4.30;99.90;;;;;;5050602;28;20525;-54
2021/11/25 04:06:14;;;;;;;17.75;12.02;;;4.30;99.90;;;;;;5049554;28;20022;-54
2021/11/25 04:08:40;;;;;;;17.70;11.85;;;4.30;99.90;;;;;;5031898;28;20067;-51
2021/11/25 04:11:06;;;;;;;16.27;10.88;;;4.30;99.90;;;;;;5050244;28;20034;-54
2021/11/25 04:13:32;;;;;;;16.85;11.32;;;4.30;99.90;;;;;;5051877;28;20024;-54
2021/11/25 04:15:58;;;;;;;17.27;11.80;;;4.30;99.90;;;;;;5045214;28;20053;-54
2021/11/25 04:18:24;;;;;;;16.20;10.88;;;4.30;99.90;;;;;;5049773;28;20037;-55
2021/11/25 04:20:49;;;;;;;16.02;11.80;;;4.30;99.90;;;;;;5048906;28;20111;-56
2021/11/25 04:23:15;;;;;;;16.30;11.27;;;4.30;99.90;;;;;;5034860;28;20040;-53
2021/11/25 04:25:41;;;;;;;16.25;10.65;;;4.30;99.90;;;;;;5050958;28;20068;-53
2021/11/25 04:28:07;;;;;;;15.73;11.23;;;4.40;99.90;;;;;;5049601;28;20583;-53
2021/11/25 04:35:50;;;;;;;15.88;10.80;;;4.40;99.90;;;;;;5030389;28;20413;-55
2021/11/25 04:38:18;;;;;;;13.65;11.10;;;4.40;99.90;;;;;;5031443;28;20539;-53
2021/11/25 04:40:49;;;;;;;15.80;11.05;;;4.40;99.90;;;;;;5029722;28;20037;-53
2021/11/25 04:43:16;;;;;;;14.73;10.35;;;4.40;99.90;;;;;;5029348;28;20025;-53
2021/11/25 04:45:43;;;;;;;14.15;10.07;;;4.40;99.90;;;;;;5034851;28;20036;-55
2021/11/25 04:48:09;;;;;;;12.88;9.45;;;4.40;99.90;;;;;;5049359;28;20028;-51
2021/11/25 04:50:36;;;;;;;12.65;9.93;;;4.40;99.90;;;;;;5049837;28;20021;-50
2021/11/25 04:53:02;;;;;;;16.35;10.80;;;4.40;99.90;;;;;;5047910;28;20029;-55
2021/11/25 04:55:28;;;;;;;14.77;10.10;;;4.30;99.90;;;;;;5049704;28;20512;-56
2021/11/25 04:57:53;;;;;;;14.80;11.20;;;4.30;99.90;;;;;;5049121;28;20065;-53
2021/11/25 05:00:21;;;;;;;12.13;9.52;;;4.40;99.90;;;;;;5030424;28;20018;-54
2021/11/25 05:02:47;;;;;;;15.02;10.30;;;4.40;99.90;;;;;;5034000;28;20025;-55
2021/11/25 05:05:13;;;;;;;14.73;11.27;;;4.40;99.90;;;;;;5030111;28;20095;-55
2021/11/25 05:07:38;;;;;;;14.80;10.63;;;4.40;99.90;;;;;;5029904;28;20032;-55
2021/11/25 05:10:06;;;;;;;17.13;10.93;;;4.40;99.90;;;;;;5030946;28;20397;-53
2021/11/25 05:12:32;;;;;;;13.35;10.55;;;4.40;99.90;;;;;;5028666;28;20025;-52
2021/11/25 05:14:57;;;;;;;15.80;10.73;;;4.40;99.90;;;;;;5035233;28;20507;-51
2021/11/25 05:17:24;;;;;;;13.40;10.77;;;4.40;99.90;;;;;;5049264;28;20060;-52
2021/11/25 05:19:50;;;;;;;17.08;11.25;;;4.30;99.90;;;;;;5047917;28;20021;-55
2021/11/25 05:22:15;;;;;;;17.23;10.88;;;4.40;99.90;;;;;;5037414;28;20040;-51
2021/11/25 05:24:41;;;;;;;13.52;10.30;;;4.40;99.90;;;;;;5029864;28;20025;-53
2021/11/25 05:27:07;;;;;;;15.13;11.18;;;4.40;99.90;;;;;;5039383;28;20051;-53
2021/11/25 05:29:33;;;;;;;16.15;10.63;;;4.40;99.90;;;;;;5049392;28;20025;-54
2021/11/25 05:31:58;;;;;;;16.13;10.85;;;4.30;99.90;;;;;;5047757;28;20025;-53
2021/11/25 05:34:24;;;;;;;15.40;10.98;;;4.30;99.90;;;;;;5029835;28;20075;-53
2021/11/25 05:36:50;;;;;;;15.50;11.65;;;4.30;99.90;;;;;;5029548;28;20073;-50
2021/11/25 05:39:15;;;;;;;16.27;11.98;;;4.30;99.90;;;;;;5028870;28;20053;-54
2021/11/25 05:41:41;;;;;;;17.00;12.13;;;4.30;99.90;;;;;;5029624;28;20493;-52
2021/11/25 05:44:08;;;;;;;16.17;10.82;;;4.40;99.90;;;;;;5029614;28;20022;-49
2021/11/25 05:46:34;;;;;;;15.82;11.88;;;4.30;99.90;;;;;;5029220;28;20033;-52
2021/11/25 05:48:59;;;;;;;14.90;10.70;;;4.30;99.90;;;;;;5028225;28;20025;-54
2021/11/25 05:51:25;;;;;;;15.93;11.55;;;4.30;99.90;;;;;;5028424;28;20543;-54
2021/11/25 05:53:51;;;;;;;18.20;12.65;;;4.30;99.90;;;;;;5028965;28;20064;-52
2021/11/25 05:56:17;;;;;;;15.38;12.05;;;4.30;99.90;;;;;;5029699;28;20024;-54
2021/11/25 05:58:42;;;;;;;19.13;13.23;;;4.30;99.90;;;;;;5029686;28;20057;-55
2021/11/25 06:01:08;;;;;;;16.52;12.13;;;4.30;99.90;;;;;;5028589;28;20095;-54
2021/11/25 06:03:34;;;;;;;17.00;11.82;;;4.30;99.90;;;;;;5028371;28;20056;-51
2021/11/25 06:06:00;;;;;;;15.48;12.30;;;4.40;99.90;;;;;;5029101;28;20537;-55
2021/11/25 06:08:26;;;;;;;19.05;12.93;;;4.40;99.90;;;;;;5028228;28;20492;-51
2021/11/25 06:10:52;;;;;;;16.73;12.50;;;4.40;99.90;;;;;;5044939;28;20109;-56
2021/11/25 06:13:18;;;;;;;18.13;13.18;;;4.40;99.90;;;;;;5048056;28;20040;-56
2021/11/25 06:15:46;;;;;;;19.67;13.15;;;4.40;99.90;;;;;;5048325;28;20087;-54
2021/11/25 06:18:15;;;;;;;17.58;12.82;;;4.40;99.90;;;;;;5046424;28;20037;-51
2021/11/25 06:20:41;;;;;;;16.58;11.95;;;4.40;99.90;;;;;;5048238;28;20037;-56
2021/11/25 06:23:06;;;;;;;19.83;13.43;;;4.40;99.90;;;;;;5047336;28;20032;-54
2021/11/25 06:25:32;;;;;;;16.73;13.20;;;4.40;99.90;;;;;;5046695;28;20112;-53
2021/11/25 06:27:58;;;;;;;19.30;13.02;;;4.40;99.90;;;;;;5047872;28;20025;-53
2021/11/25 06:30:24;;;;;;;16.58;12.02;;;4.40;99.90;;;;;;5047887;28;20025;-55
2021/11/25 06:32:51;;;;;;;18.98;13.20;;;4.40;99.90;;;;;;5029310;28;20063;-50
2021/11/25 06:35:18;;;;;;;19.23;13.10;;;4.40;99.90;;;;;;5028441;28;20052;-53
2021/11/25 06:37:48;;;;;;;16.65;12.43;;;4.40;99.90;;;;;;5027783;28;20044;-50
2021/11/25 06:40:16;;;;;;;19.15;12.40;;;4.30;99.90;;;;;;5073929;22;20048;-52
2021/11/25 06:42:42;;;;;;;20.48;13.65;;;4.40;99.90;;;;;;5067078;28;20032;-54
2021/11/25 06:45:08;;;;;;;18.30;13.52;;;4.40;99.90;;;;;;5068416;28;20107;-54
2021/11/25 06:47:34;;;;;;;20.30;12.73;;;4.40;99.90;;;;;;5067582;28;20107;-54
2021/11/25 06:49:59;;;;;;;20.42;12.80;;;4.40;99.90;;;;;;5068169;28;20374;-54
2021/11/25 06:52:25;;;;;;;21.38;14.00;;;4.40;99.90;;;;;;5059738;28;20052;-57
2021/11/25 06:54:50;;;;;;;17.77;12.80;;;4.40;99.90;;;;;;5064992;28;20051;-57
2021/11/25 06:57:16;;;;;;;18.70;13.07;;;4.40;99.90;;;;;;5067103;28;20017;-54
2021/11/25 06:59:42;;;;;;;22.13;13.70;;;4.40;99.90;;;;;;5047950;28;20025;-55
2021/11/25 07:02:08;;;;;;;22.38;14.50;;;4.40;99.90;;;;;;5047787;28;20040;-54
2021/11/25 07:04:34;;;;;;;20.23;13.70;;;4.40;99.90;;;;;;5047275;28;20025;-53
2021/11/25 07:07:01;;;;;;;22.90;15.93;;;4.40;99.90;;;;;;5047581;28;20021;-53
2021/11/25 07:09:27;;;;;;;19.38;15.25;;;4.40;99.90;;;;;;5047219;28;20396;-54
2021/11/25 07:11:53;;;;;;;19.70;14.10;;;4.40;99.90;;;;;;5047852;28;20072;-56
2021/11/25 07:14:18;;;;;;;22.55;15.10;;;4.40;99.90;;;;;;5047689;28;20029;-56
2021/11/25 07:16:44;;;;;;;20.05;14.52;;;4.40;99.90;;;;;;5051622;28;20542;-55
2021/11/25 07:19:09;;;;;;;22.08;14.85;;;4.40;99.90;;;;;;5051363;28;20032;-54
2021/11/25 07:21:35;;;;;;;21.42;15.25;;;4.40;99.90;;;;;;5052136;28;20036;-54
2021/11/25 07:24:00;;;;;;;24.17;16.30;;;4.40;99.90;;;;;;5051950;28;20032;-55
2021/11/25 07:26:26;;;;;;;21.98;15.95;;;4.50;99.90;;;;;;5051695;28;20109;-53
2021/11/25 07:28:54;;;;;;;23.85;15.95;;;4.50;99.90;;;;;;5051425;28;20439;-55
2021/11/25 07:31:20;;;;;;;28.10;16.95;;;4.50;99.90;;;;;;5033791;28;20028;-57
2021/11/25 07:33:46;;;;;;;23.05;16.65;;;4.50;99.90;;;;;;5067509;28;20055;-53
2021/11/25 07:36:13;;;;;;;23.77;17.00;;;4.50;99.90;;;;;;5070744;28;20025;-55
2021/11/25 07:38:38;;;;;;;23.58;16.35;;;4.50;99.90;;;;;;5071127;28;20748;-53
2021/11/25 07:41:04;;;;;;;24.98;16.45;;;4.60;99.90;;;;;;5071183;28;20123;-52
2021/11/25 07:43:31;;;;;;;25.52;17.27;;;4.60;99.90;;;;;;5071452;28;20028;-54
2021/11/25 07:45:57;;;;;;;25.77;17.15;;;4.60;99.90;;;;;;5069735;28;20082;-53
2021/11/25 07:48:23;;;;;;;25.63;17.73;;;4.60;99.90;;;;;;5071366;28;20017;-56
2021/11/25 07:50:48;;;;;;;26.13;17.85;;;4.60;99.90;;;;;;5051816;28;20029;-54
2021/11/25 07:53:14;;;;;;;26.23;17.55;;;4.60;99.90;;;;;;5051378;28;20040;-54
2021/11/25 07:55:39;;;;;;;25.85;18.80;;;4.70;99.90;;;;;;5068327;28;20036;-54
2021/11/25 07:58:05;;;;;;;24.45;18.80;;;4.70;99.90;;;;;;5070550;28;20056;-53
2021/11/25 08:00:31;;;;;;;30.33;19.02;;;4.70;99.90;;;;;;5067306;28;20032;-54
2021/11/25 08:02:57;;;;;;;29.05;18.73;;;4.70;99.90;;;;;;5071163;28;20112;-57
2021/11/25 08:05:26;;;;;;;26.63;18.77;;;4.70;99.90;;;;;;5070567;28;20024;-57
2021/11/25 08:07:58;;;;;;;27.65;18.42;;;4.80;99.90;;;;;;5070564;28;20023;-54
2021/11/25 08:10:25;;;;;;;27.63;18.63;;;4.80;99.90;;;;;;5069907;28;20108;-55
2021/11/25 08:12:51;;;;;;;27.63;19.08;;;4.90;99.90;;;;;;5052833;28;20025;-55
2021/11/25 08:15:17;;;;;;;31.23;20.42;;;4.90;99.90;;;;;;5070418;28;20107;-52
2021/11/25 08:17:43;;;;;;;28.65;20.80;;;4.90;99.90;;;;;;5071224;28;20544;-56
2021/11/25 08:20:11;;;;;;;30.85;21.17;;;5.00;99.90;;;;;;5056508;28;20029;-54
2021/11/25 08:22:37;;;;;;;31.20;20.80;;;5.00;99.90;;;;;;5051227;28;20021;-55
2021/11/25 08:25:05;;;;;;;30.55;20.45;;;5.00;99.90;;;;;;5032987;28;20025;-54
2021/11/25 08:27:31;;;;;;;31.83;20.88;;;5.00;99.90;;;;;;5050349;28;20036;-54
2021/11/25 08:29:57;;;;;;;30.00;21.08;;;5.00;99.90;;;;;;5050540;28;20025;-54
2021/11/25 08:32:23;;;;;;;31.50;21.33;;;5.00;99.90;;;;;;5050806;28;20155;-53
2021/11/25 08:34:48;;;;;;;34.35;20.70;;;5.00;99.90;;;;;;5051062;28;20115;-55
2021/11/25 08:37:14;;;;;;;30.77;20.42;;;5.00;99.90;;;;;;5050545;28;20025;-56
2021/11/25 08:39:40;;;;;;;29.73;20.98;;;4.90;99.90;;;;;;5061478;28;20029;-57
2021/11/25 08:42:06;;;;;;;33.63;21.58;;;5.00;99.90;;;;;;5070131;28;20013;-55
2021/11/25 08:44:32;;;;;;;31.80;21.83;;;5.00;99.90;;;;;;5041144;28;20029;-54
2021/11/25 08:46:59;;;;;;;28.80;19.75;;;5.00;99.90;;;;;;5050391;28;20027;-54
2021/11/25 08:49:25;;;;;;;34.08;20.55;;;5.00;99.90;;;;;;5050216;28;20098;-53
2021/11/25 08:51:51;;;;;;;32.25;22.33;;;5.00;99.90;;;;;;5050331;28;20112;-54
2021/11/25 08:54:17;;;;;;;30.33;19.67;;;5.00;99.90;;;;;;5036267;28;20047;-55
2021/11/25 08:56:43;;;;;;;29.70;21.17;;;5.00;99.90;;;;;;5070566;28;20020;-55
2021/11/25 08:59:09;;;;;;;32.28;22.00;;;5.10;99.90;;;;;;5061895;28;20041;-54
2021/11/25 09:01:35;;;;;;;36.22;23.55;;;5.10;99.90;;;;;;5050231;28;20033;-56
2021/11/25 09:04:00;;;;;;;34.05;21.92;;;5.10;99.90;;;;;;5050626;28;20468;-55
2021/11/25 09:06:26;;;;;;;31.58;21.15;;;5.10;99.90;;;;;;5049941;28;20020;-55
2021/11/25 09:08:52;;;;;;;32.47;21.13;;;5.10;99.90;;;;;;5068083;28;20032;-57
2021/11/25 09:11:18;;;;;;;39.47;23.33;;;5.10;99.90;;;;;;5049533;28;20025;-54
2021/11/25 09:13:44;;;;;;;35.88;23.02;;;5.10;99.90;;;;;;5042537;28;20030;-52
2021/11/25 09:16:10;;;;;;;35.50;23.58;;;5.10;99.90;;;;;;5036546;28;20511;-55
2021/11/25 09:18:36;;;;;;;38.92;24.05;;;5.10;99.90;;;;;;5045425;28;20083;-56
2021/11/25 09:21:02;;;;;;;36.92;24.65;;;5.10;99.90;;;;;;5029625;28;20505;-53
2021/11/25 09:23:28;;;;;;;34.10;23.80;;;5.10;99.90;;;;;;5059491;28;20113;-53
2021/11/25 09:25:54;;;;;;;33.67;22.58;;;5.10;99.90;;;;;;5068769;28;20036;-55
2021/11/25 09:28:23;;;;;;;36.55;23.73;;;5.10;99.90;;;;;;5054058;28;20330;-53
2021/11/25 09:30:49;;;;;;;39.03;23.35;;;5.10;99.90;;;;;;5050310;28;20028;-53
2021/11/25 09:33:15;;;;;;;35.53;23.08;;;5.20;99.90;;;;;;5051958;28;20029;-57
2021/11/25 09:35:42;;;;;;;33.10;22.88;;;5.20;99.90;;;;;;5049145;28;20032;-54
2021/11/25 09:38:10;;;;;;;34.88;23.13;;;5.20;99.90;;;;;;5043277;28;20040;-56
2021/11/25 09:40:37;;;;;;;37.45;24.02;;;5.20;99.90;;;;;;5045400;28;20040;-53
2021/11/25 09:43:06;;;;;;;35.58;23.50;;;5.20;99.90;;;;;;5048615;28;20079;-57
2021/11/25 09:45:36;;;;;;;39.67;26.23;;;5.20;99.90;;;;;;5047535;28;20067;-54
2021/11/25 09:48:05;;;;;;;36.38;23.42;;;5.30;99.90;;;;;;5054047;28;20012;-54
2021/11/25 09:50:35;;;;;;;36.83;24.25;;;5.30;99.90;;;;;;5050541;28;20044;-54
2021/11/25 09:53:03;;;;;;;34.53;23.83;;;5.40;99.90;;;;;;5050416;28;20404;-56
2021/11/25 09:55:31;;;;;;;36.90;23.05;;;5.50;99.90;;;;;;5047372;28;20108;-54
2021/11/25 09:57:56;;;;;;;37.97;24.38;;;5.60;99.90;;;;;;5048902;28;20025;-54
2021/11/25 10:00:27;;;;;;;34.45;23.13;;;5.60;99.90;;;;;;5047405;28;20055;-56
2021/11/25 10:02:53;;;;;;;37.47;23.23;;;5.70;99.90;;;;;;5034809;28;20028;-55
2021/11/25 10:05:19;;;;;;;32.78;23.33;;;5.70;99.90;;;;;;5038577;28;20018;-55
2021/11/25 10:07:45;;;;;;;34.00;23.00;;;5.70;99.90;;;;;;5028001;28;20095;-53
2021/11/25 10:10:31;;;;;;;35.25;23.05;;;5.80;99.90;;;;;;5028726;28;20473;-54
2021/11/25 10:13:10;;;;;;;34.42;22.55;;;5.80;99.90;;;;;;5049969;28;20519;-55
2021/11/25 10:15:38;;;;;;;35.28;22.55;;;5.90;99.90;;;;;;5049948;28;20442;-56
2021/11/25 10:18:06;;;;;;;37.80;22.42;;;5.80;99.90;;;;;;5059344;28;20067;-55
2021/11/25 10:20:35;;;;;;;38.97;23.38;;;5.90;99.90;;;;;;5029971;28;20075;-54
2021/11/25 10:23:01;;;;;;;31.55;22.83;;;5.90;99.90;;;;;;5034871;28;20529;-55
2021/11/25 10:25:48;;;;;;;36.45;24.33;;;5.90;99.90;;;;;;5047659;28;20062;-51
2021/11/25 10:28:42;;;;;;;36.03;23.13;;;5.90;99.90;;;;;;5046859;28;20029;-54
2021/11/25 10:31:15;;;;;;;39.05;23.33;;;5.90;99.90;;;;;;5025377;28;20029;-57
2021/11/25 10:33:59;;;;;;;37.58;22.92;;;5.90;99.90;;;;;;5053411;28;20500;-54
2021/11/25 10:36:53;;;;;;;35.60;22.33;;;5.90;99.90;;;;;;5067623;28;20039;-54
2021/11/25 10:41:51;;;;;;;37.90;24.48;;;5.80;99.90;;;;;;5067575;28;20028;-54
2021/11/25 10:44:19;;;;;;;39.35;24.70;;;5.90;99.90;;;;;;5067398;28;20039;-54
2021/11/25 10:46:51;;;;;;;50.92;26.25;;;5.90;99.90;;;;;;5053327;28;20219;-56
2021/11/25 10:49:17;;;;;;;69.22;43.38;;;5.90;99.90;;;;;;5042138;28;20016;-55
2021/11/25 10:51:45;;;;;;;65.20;39.10;;;5.90;99.90;;;;;;5047637;28;20083;-54
2021/11/25 10:54:16;;;;;;;43.20;28.10;;;5.80;99.90;;;;;;5047209;28;20053;-55
2021/11/25 10:56:50;;;;;;;44.22;25.60;;;5.90;99.90;;;;;;5047417;28;20016;-56
2021/11/25 10:59:21;;;;;;;42.10;27.83;;;5.80;99.90;;;;;;5028702;28;20496;-53
2021/11/25 11:01:49;;;;;;;56.08;35.38;;;5.80;99.90;;;;;;5053413;28;20624;-54
2021/11/25 11:04:17;;;;;;;48.05;30.75;;;5.80;99.90;;;;;;5053426;28;20231;-56
2021/11/25 11:06:44;;;;;;;45.35;28.80;;;5.80;99.90;;;;;;5047201;28;20025;-54
2021/11/25 11:09:39;;;;;;;42.63;28.40;;;5.80;99.90;;;;;;5046867;28;20507;-54
2021/11/25 11:12:35;;;;;;;42.35;25.42;;;5.80;99.90;;;;;;5029473;28;20025;-54
2021/11/25 11:15:27;;;;;;;42.95;26.48;;;5.80;99.90;;;;;;5046950;28;20067;-53
2021/11/25 11:20:44;;;;;;;44.67;25.73;;;5.70;99.90;;;;;;5047351;28;20024;-55
2021/11/25 11:23:09;;;;;;;45.67;28.10;;;5.80;99.90;;;;;;5026971;28;20052;-56
2021/11/25 11:25:36;;;;;;;40.25;27.05;;;5.70;99.90;;;;;;5027499;28;20428;-54
2021/11/25 11:28:05;;;;;;;45.33;26.00;;;5.70;99.90;;;;;;5027047;28;20033;-54
2021/11/25 11:30:31;;;;;;;46.58;26.55;;;5.60;99.90;;;;;;5027474;28;20171;-55
2021/11/25 11:32:57;;;;;;;45.80;28.08;;;5.60;99.90;;;;;;5027434;28;20026;-55
2021/11/25 11:35:25;;;;;;;42.85;27.70;;;5.70;99.90;;;;;;5027681;28;20045;-56
2021/11/25 11:37:54;;;;;;;44.95;28.33;;;5.70;99.90;;;;;;5027600;28;20024;-57
2021/11/25 11:40:25;;;;;;;45.47;26.35;;;5.60;99.90;;;;;;5027472;28;20576;-56
2021/11/25 11:42:52;;;;;;;43.95;27.58;;;5.70;99.90;;;;;;5027048;28;20500;-57
2021/11/25 11:45:20;;;;;;;50.25;28.42;;;5.60;99.90;;;;;;5027418;28;20533;-56
2021/11/25 11:47:51;;;;;;;43.22;27.90;;;5.60;99.90;;;;;;5026842;28;20176;-57
2021/11/25 11:50:17;;;;;;;47.60;26.65;;;5.60;99.90;;;;;;5009568;28;20676;-55
2021/11/25 11:52:56;;;;;;;48.28;29.00;;;5.60;99.90;;;;;;5027242;28;20045;-55
2021/11/25 11:55:36;;;;;;;61.60;31.73;;;5.60;99.90;;;;;;5027614;28;20048;-57
2021/11/25 11:58:36;;;;;;;61.13;38.00;;;5.60;99.90;;;;;;5026989;28;20071;-56
2021/11/25 12:01:24;;;;;;;55.20;36.28;;;5.50;99.90;;;;;;5028275;28;20017;-57
2021/11/25 12:04:09;;;;;;;48.63;31.83;;;5.60;99.90;;;;;;5031030;28;20080;-58
2021/11/25 12:06:53;;;;;;;48.47;31.98;;;5.50;99.90;;;;;;5030954;28;20051;-57
2021/11/25 12:09:29;;;;;;;43.13;28.58;;;5.60;99.90;;;;;;5030671;28;20620;-56
2021/11/25 12:12:14;;;;;;;45.63;30.48;;;5.60;99.90;;;;;;5030907;28;20017;-56
2021/11/25 12:14:57;;;;;;;43.43;26.93;;;5.60;99.90;;;;;;5049333;28;20068;-57
2021/11/25 12:17:33;;;;;;;45.78;33.47;;;5.60;99.90;;;;;;5050528;28;20669;-56
2021/11/25 12:20:23;;;;;;;49.33;30.80;;;5.60;99.90;;;;;;5049712;28;20033;-56
2021/11/25 12:22:51;;;;;;;39.08;25.25;;;5.60;99.90;;;;;;5049164;28;20025;-57
2021/11/25 12:25:40;;;;;;;41.72;25.40;;;5.60;99.90;;;;;;5048839;28;20071;-58
2021/11/25 12:28:22;;;;;;;39.22;25.10;;;5.70;99.90;;;;;;5049464;28;20468;-53
2021/11/25 12:30:53;;;;;;;38.03;25.23;;;5.70;99.90;;;;;;5050133;28;20024;-56
2021/11/25 12:33:47;;;;;;;39.05;26.73;;;5.70;99.90;;;;;;5048818;28;20118;-54
2021/11/25 12:36:31;;;;;;;41.38;24.30;;;5.70;99.90;;;;;;5048861;28;20049;-55
2021/11/25 12:38:57;;;;;;;43.00;25.27;;;5.70;99.90;;;;;;5048382;28;20029;-56
2021/11/25 12:41:23;;;;;;;34.80;22.45;;;5.70;99.90;;;;;;5049772;28;20078;-56
2021/11/25 12:43:48;;;;;;;40.80;25.75;;;5.70;99.90;;;;;;5049509;28;20423;-57
2021/11/25 12:46:17;;;;;;;39.33;23.10;;;5.70;99.90;;;;;;5042126;28;20059;-58
2021/11/25 12:48:42;;;;;;;44.45;24.25;;;5.70;99.90;;;;;;5062779;28;20447;-54
2021/11/25 12:51:11;;;;;;;36.88;23.67;;;5.70;99.90;;;;;;5056976;28;20075;-58
2021/11/25 12:53:40;;;;;;;38.20;21.83;;;5.70;99.90;;;;;;5058344;28;20048;-54